F/V Oceanie — FVBW — position and weather

sailwx.info

Track history (hours):
 
Tides and Currents Weather Stations Pressure Air Temp Water Temp Dewpoint Dewpoint Depression Visibility Wind Speed Wind Dir Waves Ship Positions

F/V Oceanie

Last reported at 2015-May-22 03:33 UTC. Time now 2015-May-22 10:02 UTC.
Position N 47°24' W 003°31'.

Length 16 m.

Type: Fishing. MMSI: 228370000.

Date/timePositionNaut miles runAvg speedWind from/ knotsBaromVisibWave heightAir tempDewpointWater temp
2015-May-22 03:33N 47°24' W 003°31'9 9.2
2015-May-22 02:33N 47°32' W 003°26'9 9.0
2015-May-22 01:33N 47°41' W 003°22'3 2.8
2015-May-22 00:33N 47°44' W 003°22'2 2.1
2015-May-21 23:33N 47°42' W 003°22'9 8.7
2015-May-21 22:33N 47°33' W 003°26'9 8.5
2015-May-21 21:31N 47°25' W 003°31'1 0.0
2015-May-21 03:07N 47°25' W 003°31'5 8.9
2015-May-21 02:33N 47°29' W 003°28'9 8.6
2015-May-21 01:33N 47°37' W 003°23'7 6.6
2015-May-21 00:33N 47°44' W 003°22'5 5.4
2015-May-20 23:33N 47°38' W 003°23'9 8.8
2015-May-20 22:33N 47°30' W 003°27'8 0.4
2015-May-20 03:15N 47°23' W 003°32'6 8.7
2015-May-20 02:33N 47°29' W 003°28'8 8.5
2015-May-20 01:33N 47°37' W 003°24'7 7.0
2015-May-20 00:33N 47°44' W 003°22'6 5.8
2015-May-19 23:33N 47°38' W 003°23'9 8.7
2015-May-19 22:33N 47°30' W 003°27'8 8.1
2015-May-19 21:31N 47°22' W 003°31'3 0.2
2015-May-19 04:15N 47°19' W 003°33'6 8.3
2015-May-19 03:33N 47°24' W 003°30'8 8.3
2015-May-19 02:33N 47°32' W 003°26'9 8.7
2015-May-19 01:33N 47°41' W 003°22'3 3.2
2015-May-19 00:33N 47°44' W 003°22'8 8.0
2015-May-18 23:33N 47°36' W 003°24'9 8.7
2015-May-18 22:33N 47°28' W 003°28'3 0.2
2015-May-18 02:33N 47°25' W 003°31'8 8.5
2015-May-18 01:33N 47°33' W 003°26'9 8.9
2015-May-18 00:33N 47°41' W 003°22'3 0.1
2015-May-16 01:29N 47°44' W 003°22'0 0.0
2015-May-16 00:33N 47°44' W 003°22'8 8.4
2015-May-15 23:33N 47°35' W 003°24'9 9.2
2015-May-15 22:34N 47°27' W 003°27'6 0.1
2015-May-14 03:31N 47°21' W 003°25'8 8.3
2015-May-14 02:32N 47°29' W 003°24'8 8.5
2015-May-14 01:33N 47°37' W 003°23'6 6.3
2015-May-14 00:32N 47°44' W 003°22'7 6.7
2015-May-13 23:33N 47°37' W 003°22'9 9.2
2015-May-13 22:33N 47°28' W 003°24'18 1.0
2015-May-13 04:25N 47°10' W 003°27'7 8.6
2015-May-13 03:33N 47°17' W 003°25'9 8.9
2015-May-13 02:34N 47°26' W 003°24'9 9.1
2015-May-13 01:33N 47°35' W 003°22'9 8.4
2015-May-13 00:33N 47°44' W 003°22'5 5.0
2015-May-12 23:33N 47°39' W 003°22'9 8.7
2015-May-12 22:33N 47°30' W 003°23'10 9.1
2015-May-12 21:29N 47°21' W 003°25'23 1.5
2015-May-12 06:04N 46°57' W 003°23'2 4.1
2015-May-12 05:31N 46°59' W 003°24'5 4.0
2015-May-12 04:19N 47°04' W 003°25'  
Track history (hours):
 
Tides and Currents Weather Stations Pressure Air Temp Water Temp Dewpoint Dewpoint Depression Visibility Wind Speed Wind Dir Waves Ship Positions

F/V Oceanie

Last reported at 2015-May-22 03:33 UTC. Time now 2015-May-22 10:02 UTC.
Position N 47°24' W 003°31'.

Length 16 m.

Type: Fishing. MMSI: 228370000.

Date/timePositionNaut miles runAvg speedWind from/ knotsBaromVisibWave heightAir tempDewpointWater temp
2015-May-22 03:33N 47°24' W 003°31'9 9.2
2015-May-22 02:33N 47°32' W 003°26'9 9.0
2015-May-22 01:33N 47°41' W 003°22'3 2.8
2015-May-22 00:33N 47°44' W 003°22'2 2.1
2015-May-21 23:33N 47°42' W 003°22'9 8.7
2015-May-21 22:33N 47°33' W 003°26'9 8.5
2015-May-21 21:31N 47°25' W 003°31'1 0.0
2015-May-21 03:07N 47°25' W 003°31'5 8.9
2015-May-21 02:33N 47°29' W 003°28'9 8.6
2015-May-21 01:33N 47°37' W 003°23'7 6.6
2015-May-21 00:33N 47°44' W 003°22'5 5.4
2015-May-20 23:33N 47°38' W 003°23'9 8.8
2015-May-20 22:33N 47°30' W 003°27'8 0.4
2015-May-20 03:15N 47°23' W 003°32'6 8.7
2015-May-20 02:33N 47°29' W 003°28'8 8.5
2015-May-20 01:33N 47°37' W 003°24'7 7.0
2015-May-20 00:33N 47°44' W 003°22'6 5.8
2015-May-19 23:33N 47°38' W 003°23'9 8.7
2015-May-19 22:33N 47°30' W 003°27'8 8.1
2015-May-19 21:31N 47°22' W 003°31'3 0.2
2015-May-19 04:15N 47°19' W 003°33'6 8.3
2015-May-19 03:33N 47°24' W 003°30'8 8.3
2015-May-19 02:33N 47°32' W 003°26'9 8.7
2015-May-19 01:33N 47°41' W 003°22'3 3.2
2015-May-19 00:33N 47°44' W 003°22'8 8.0
2015-May-18 23:33N 47°36' W 003°24'9 8.7
2015-May-18 22:33N 47°28' W 003°28'3 0.2
2015-May-18 02:33N 47°25' W 003°31'8 8.5
2015-May-18 01:33N 47°33' W 003°26'9 8.9
2015-May-18 00:33N 47°41' W 003°22'3 0.1
2015-May-16 01:29N 47°44' W 003°22'0 0.0
2015-May-16 00:33N 47°44' W 003°22'8 8.4
2015-May-15 23:33N 47°35' W 003°24'9 9.2
2015-May-15 22:34N 47°27' W 003°27'6 0.1
2015-May-14 03:31N 47°21' W 003°25'8 8.3
2015-May-14 02:32N 47°29' W 003°24'8 8.5
2015-May-14 01:33N 47°37' W 003°23'6 6.3
2015-May-14 00:32N 47°44' W 003°22'7 6.7
2015-May-13 23:33N 47°37' W 003°22'9 9.2
2015-May-13 22:33N 47°28' W 003°24'18 1.0
2015-May-13 04:25N 47°10' W 003°27'7 8.6
2015-May-13 03:33N 47°17' W 003°25'9 8.9
2015-May-13 02:34N 47°26' W 003°24'9 9.1
2015-May-13 01:33N 47°35' W 003°22'9 8.4
2015-May-13 00:33N 47°44' W 003°22'5 5.0
2015-May-12 23:33N 47°39' W 003°22'9 8.7
2015-May-12 22:33N 47°30' W 003°23'10 9.1
2015-May-12 21:29N 47°21' W 003°25'23 1.5
2015-May-12 06:04N 46°57' W 003°23'2 4.1
2015-May-12 05:31N 46°59' W 003°24'5 4.0
2015-May-12 04:19N 47°04' W 003°25'  

Dump ship's entire track history